Time;durP1;ratioP1;P1;durP2;ratioP2;P2;SDS_P1;SDS_P2;PMS_P1;PMS_P2;Temp;Humidity;BMP_temperature;BMP_pressure;BME280_temperature;BME280_humidity;BME280_pressure;Samples;Min_cycle;Max_cycle;Signal;HPM_P1;HPM_P2
2023/08/20 00:00:27;;;;;;;3.90;2.13;;;;;;;;;;6364906;22;20014;-84
2023/08/20 00:02:58;;;;;;;5.32;2.85;;;;;;;;;;6365899;22;20014;-84
2023/08/20 00:05:25;;;;;;;4.35;1.67;;;;;;;;;;6365879;22;20010;-84
2023/08/20 00:07:51;;;;;;;2.83;1.63;;;;;;;;;;6365893;22;20071;-84
2023/08/20 00:10:17;;;;;;;3.35;2.00;;;;;;;;;;6338178;22;20014;-84
2023/08/20 00:12:43;;;;;;;4.65;1.98;;;;;;;;;;6366917;22;20081;-84
2023/08/20 00:15:10;;;;;;;2.03;1.60;;;;;;;;;;6365694;22;20022;-84
2023/08/20 00:17:37;;;;;;;2.60;1.63;;;;;;;;;;6366699;22;20021;-84
2023/08/20 00:20:12;;;;;;;4.00;1.75;;;;;;;;;;6365326;22;20334;-84
2023/08/20 00:22:42;;;;;;;4.82;1.92;;;;;;;;;;6366622;22;20336;-84
2023/08/20 00:25:08;;;;;;;5.80;2.28;;;;;;;;;;6365126;22;20021;-84
2023/08/20 00:27:34;;;;;;;3.38;1.80;;;;;;;;;;6366530;22;20454;-84
2023/08/20 00:30:00;;;;;;;4.50;2.00;;;;;;;;;;6364834;22;20021;-84
2023/08/20 00:32:27;;;;;;;3.55;2.15;;;;;;;;;;6336508;22;20012;-84
2023/08/20 00:34:53;;;;;;;7.05;2.28;;;;;;;;;;6331745;22;20076;-84
2023/08/20 00:37:19;;;;;;;3.90;2.20;;;;;;;;;;6332810;22;20332;-83
2023/08/20 00:39:45;;;;;;;3.72;2.25;;;;;;;;;;6334597;22;20069;-84
2023/08/20 00:42:13;;;;;;;3.10;2.00;;;;;;;;;;6333826;22;20018;-84
2023/08/20 00:44:41;;;;;;;4.97;2.30;;;;;;;;;;6334784;22;20046;-84
2023/08/20 00:47:08;;;;;;;5.25;2.75;;;;;;;;;;6332656;22;20015;-84
2023/08/20 00:49:35;;;;;;;6.70;2.35;;;;;;;;;;6333862;22;20428;-84
2023/08/20 00:52:01;;;;;;;7.30;2.90;;;;;;;;;;6331970;22;20097;-84
2023/08/20 00:54:28;;;;;;;3.85;1.95;;;;;;;;;;6334087;22;20014;-84
2023/08/20 00:56:54;;;;;;;2.13;1.83;;;;;;;;;;6333955;22;20063;-84
2023/08/20 00:59:20;;;;;;;3.40;2.10;;;;;;;;;;6334438;22;20023;-84
2023/08/20 01:01:46;;;;;;;4.40;2.05;;;;;;;;;;6331414;22;20010;-83
2023/08/20 01:04:12;;;;;;;3.10;2.00;;;;;;;;;;6332595;22;20010;-84
2023/08/20 01:06:41;;;;;;;4.53;1.90;;;;;;;;;;6332261;22;20022;-84
2023/08/20 01:09:14;;;;;;;3.65;2.00;;;;;;;;;;6333139;22;20064;-84
2023/08/20 01:11:45;;;;;;;2.78;1.67;;;;;;;;;;6334077;22;20098;-84
2023/08/20 01:14:15;;;;;;;4.60;2.03;;;;;;;;;;6330909;22;20011;-84
2023/08/20 01:16:41;;;;;;;3.22;1.75;;;;;;;;;;6332948;22;20057;-84
2023/08/20 01:19:09;;;;;;;3.85;1.92;;;;;;;;;;6331483;22;20014;-85
2023/08/20 01:21:40;;;;;;;4.55;2.00;;;;;;;;;;6332541;22;20022;-84
2023/08/20 01:24:29;;;;;;;2.10;1.90;;;;;;;;;;6334393;22;20011;-85
2023/08/20 01:26:58;;;;;;;2.05;1.83;;;;;;;;;;6287622;22;20015;-85
2023/08/20 01:29:25;;;;;;;2.75;1.67;;;;;;;;;;6332290;22;20019;-84
2023/08/20 01:31:52;;;;;;;3.83;2.15;;;;;;;;;;6304722;22;20389;-84
2023/08/20 01:34:18;;;;;;;3.97;2.13;;;;;;;;;;6351559;22;20014;-84
2023/08/20 01:36:44;;;;;;;4.85;2.40;;;;;;;;;;6364711;22;20010;-85
2023/08/20 01:39:10;;;;;;;4.82;2.38;;;;;;;;;;6335597;22;20066;-84
2023/08/20 01:41:36;;;;;;;2.88;2.10;;;;;;;;;;6364830;22;20014;-84
2023/08/20 01:44:02;;;;;;;3.72;2.42;;;;;;;;;;6364200;22;20007;-84
2023/08/20 01:46:28;;;;;;;4.15;2.40;;;;;;;;;;6364087;22;20025;-84
2023/08/20 01:48:54;;;;;;;6.20;2.75;;;;;;;;;;6364870;22;20007;-84
2023/08/20 01:51:20;;;;;;;2.70;2.03;;;;;;;;;;6337395;22;20015;-85
2023/08/20 01:53:46;;;;;;;5.95;2.50;;;;;;;;;;6365482;22;20342;-84
2023/08/20 01:56:13;;;;;;;3.90;2.35;;;;;;;;;;6364396;22;20010;-84
2023/08/20 01:58:39;;;;;;;4.18;2.45;;;;;;;;;;6363161;22;20117;-85
2023/08/20 02:01:05;;;;;;;3.20;2.15;;;;;;;;;;6364106;22;20041;-85
2023/08/20 02:03:31;;;;;;;4.63;2.95;;;;;;;;;;6365487;22;20081;-84
2023/08/20 02:05:57;;;;;;;4.35;2.55;;;;;;;;;;6364871;22;20014;-84
2023/08/20 02:08:23;;;;;;;3.50;2.53;;;;;;;;;;6363928;22;20010;-84
2023/08/20 02:10:49;;;;;;;6.10;2.85;;;;;;;;;;6337433;22;20063;-84
2023/08/20 02:13:15;;;;;;;4.85;3.00;;;;;;;;;;6337014;22;20712;-84
2023/08/20 02:15:41;;;;;;;4.70;2.60;;;;;;;;;;6336335;22;20026;-84
2023/08/20 02:18:07;;;;;;;4.05;2.55;;;;;;;;;;6365419;22;20067;-84
2023/08/20 02:20:33;;;;;;;3.85;2.50;;;;;;;;;;6364760;22;20308;-84
2023/08/20 02:22:59;;;;;;;4.15;2.55;;;;;;;;;;6365178;22;20010;-84
2023/08/20 02:25:25;;;;;;;4.43;2.60;;;;;;;;;;6365450;22;20010;-84
2023/08/20 02:27:51;;;;;;;4.03;2.45;;;;;;;;;;6364878;22;20342;-84
2023/08/20 02:30:17;;;;;;;4.10;2.47;;;;;;;;;;6335122;22;20010;-84
2023/08/20 02:32:43;;;;;;;4.53;2.70;;;;;;;;;;6364390;22;20045;-84
2023/08/20 02:35:09;;;;;;;6.00;3.25;;;;;;;;;;6363446;22;20026;-84
2023/08/20 02:37:36;;;;;;;6.35;3.13;;;;;;;;;;6363532;22;20076;-84
2023/08/20 02:40:03;;;;;;;4.15;2.85;;;;;;;;;;6364124;22;20330;-85
2023/08/20 02:42:29;;;;;;;6.35;2.97;;;;;;;;;;6335581;22;20014;-84
2023/08/20 02:44:55;;;;;;;3.50;2.97;;;;;;;;;;6336525;22;20042;-84
2023/08/20 02:47:21;;;;;;;4.65;2.88;;;;;;;;;;6364974;22;20466;-85
2023/08/20 02:49:47;;;;;;;4.30;2.60;;;;;;;;;;6336649;22;20018;-85
2023/08/20 02:52:13;;;;;;;4.85;2.55;;;;;;;;;;6364883;22;20039;-84
2023/08/20 02:54:39;;;;;;;5.03;2.92;;;;;;;;;;6365333;22;20010;-84
2023/08/20 02:57:05;;;;;;;5.20;2.83;;;;;;;;;;6363978;22;20390;-85
2023/08/20 02:59:31;;;;;;;6.00;3.13;;;;;;;;;;6336629;22;20015;-87
2023/08/20 03:01:57;;;;;;;3.53;3.05;;;;;;;;;;6363180;22;20334;-84
2023/08/20 03:04:23;;;;;;;6.38;3.53;;;;;;;;;;6364903;22;20049;-84
2023/08/20 03:06:49;;;;;;;4.32;3.30;;;;;;;;;;6364360;22;20010;-84
2023/08/20 03:09:15;;;;;;;4.03;3.40;;;;;;;;;;6362822;22;20435;-84
2023/08/20 03:11:41;;;;;;;5.47;3.95;;;;;;;;;;6366429;22;20006;-84
2023/08/20 03:14:07;;;;;;;4.35;3.60;;;;;;;;;;6365774;22;20020;-85
2023/08/20 03:16:33;;;;;;;4.50;3.25;;;;;;;;;;6337981;22;20079;-84
2023/08/20 03:18:59;;;;;;;5.45;3.30;;;;;;;;;;6364761;22;20011;-84
2023/08/20 03:21:25;;;;;;;5.30;3.03;;;;;;;;;;6366645;22;20301;-84
2023/08/20 03:23:51;;;;;;;4.93;3.42;;;;;;;;;;6367402;22;20014;-85
2023/08/20 03:26:17;;;;;;;6.90;3.83;;;;;;;;;;6364650;22;20443;-85
2023/08/20 03:28:43;;;;;;;5.47;3.33;;;;;;;;;;6370126;22;20011;-85
2023/08/20 03:31:09;;;;;;;3.83;3.08;;;;;;;;;;6336649;22;20118;-84
2023/08/20 03:33:35;;;;;;;4.25;3.47;;;;;;;;;;6365906;22;20029;-84
2023/08/20 03:36:01;;;;;;;4.88;3.25;;;;;;;;;;6364445;22;20064;-85
2023/08/20 03:38:27;;;;;;;4.88;3.38;;;;;;;;;;6364832;22;20014;-85
2023/08/20 03:40:55;;;;;;;4.82;3.63;;;;;;;;;;6365189;22;20017;-85
2023/08/20 03:43:21;;;;;;;3.80;3.40;;;;;;;;;;6366368;22;20010;-85
2023/08/20 03:45:50;;;;;;;4.40;3.40;;;;;;;;;;6337764;22;20018;-85
2023/08/20 03:48:16;;;;;;;5.43;3.33;;;;;;;;;;6338033;22;20010;-85
2023/08/20 03:50:42;;;;;;;4.95;4.35;;;;;;;;;;6366829;22;20406;-85
2023/08/20 03:53:08;;;;;;;5.15;3.50;;;;;;;;;;6365893;22;20073;-85
2023/08/20 03:55:34;;;;;;;4.45;3.42;;;;;;;;;;6366178;22;20443;-85
2023/08/20 03:58:00;;;;;;;5.82;3.67;;;;;;;;;;6366383;22;20015;-85
2023/08/20 04:00:26;;;;;;;5.07;3.50;;;;;;;;;;6365400;22;20460;-86
2023/08/20 04:02:52;;;;;;;6.32;3.83;;;;;;;;;;6366580;22;20010;-86
2023/08/20 04:05:18;;;;;;;6.47;3.08;;;;;;;;;;6365513;22;20334;-85
2023/08/20 04:07:45;;;;;;;5.55;3.72;;;;;;;;;;6366331;22;20014;-85
2023/08/20 04:10:12;;;;;;;3.83;3.47;;;;;;;;;;6364763;22;20018;-85
2023/08/20 04:12:38;;;;;;;4.95;4.05;;;;;;;;;;6366580;22;20015;-85
2023/08/20 04:15:04;;;;;;;4.88;3.80;;;;;;;;;;6337520;22;20377;-86
2023/08/20 04:17:30;;;;;;;5.03;4.05;;;;;;;;;;6338300;22;20085;-85
2023/08/20 04:19:56;;;;;;;5.80;3.88;;;;;;;;;;6337774;22;20045;-86
2023/08/20 04:22:22;;;;;;;5.75;3.50;;;;;;;;;;6365512;22;20448;-85
2023/08/20 04:24:48;;;;;;;7.30;3.85;;;;;;;;;;6337992;22;20014;-86
2023/08/20 04:27:14;;;;;;;6.50;3.58;;;;;;;;;;6366184;22;20015;-86
2023/08/20 04:29:40;;;;;;;5.97;3.85;;;;;;;;;;6365577;22;20018;-86
2023/08/20 04:32:06;;;;;;;5.38;3.97;;;;;;;;;;6365927;22;20038;-86
2023/08/20 04:34:33;;;;;;;6.68;4.15;;;;;;;;;;6337183;22;20015;-86
2023/08/20 04:36:59;;;;;;;5.93;4.32;;;;;;;;;;6364453;22;20026;-86
2023/08/20 04:39:25;;;;;;;7.13;3.75;;;;;;;;;;6364800;22;20017;-86
2023/08/20 04:41:51;;;;;;;5.57;3.53;;;;;;;;;;6366000;22;20339;-86
2023/08/20 04:44:17;;;;;;;5.78;4.10;;;;;;;;;;6364853;22;20014;-86
2023/08/20 04:46:43;;;;;;;6.30;4.03;;;;;;;;;;6365964;22;20014;-86
2023/08/20 04:49:09;;;;;;;5.43;3.78;;;;;;;;;;6365383;22;20032;-86
2023/08/20 04:51:35;;;;;;;7.75;4.30;;;;;;;;;;6366521;22;20006;-86
2023/08/20 04:54:01;;;;;;;10.82;5.03;;;;;;;;;;6337459;22;20039;-86
2023/08/20 04:56:27;;;;;;;8.90;4.07;;;;;;;;;;6337833;22;20010;-86
2023/08/20 04:58:53;;;;;;;7.57;4.43;;;;;;;;;;6338217;22;20022;-85
2023/08/20 05:01:19;;;;;;;8.05;4.70;;;;;;;;;;6337001;22;20010;-85
2023/08/20 05:03:45;;;;;;;6.75;5.20;;;;;;;;;;6365095;22;20366;-85
2023/08/20 05:06:11;;;;;;;9.80;5.60;;;;;;;;;;6364442;22;20063;-85
2023/08/20 05:08:37;;;;;;;7.07;4.70;;;;;;;;;;6336742;22;20014;-85
2023/08/20 05:11:03;;;;;;;8.88;5.43;;;;;;;;;;6365387;22;20018;-85
2023/08/20 05:13:29;;;;;;;9.65;4.82;;;;;;;;;;6337551;22;20146;-85
2023/08/20 05:15:55;;;;;;;8.23;5.70;;;;;;;;;;6337144;22;20439;-85
2023/08/20 05:18:21;;;;;;;10.00;5.38;;;;;;;;;;6363395;22;20017;-85
2023/08/20 05:20:47;;;;;;;7.10;4.85;;;;;;;;;;6337370;22;20489;-85
2023/08/20 05:23:13;;;;;;;7.25;5.28;;;;;;;;;;6363955;22;20029;-84
2023/08/20 05:25:39;;;;;;;7.15;4.80;;;;;;;;;;6365741;22;20015;-85
2023/08/20 05:28:05;;;;;;;5.68;4.55;;;;;;;;;;6337514;22;20011;-84
2023/08/20 05:30:31;;;;;;;7.15;4.68;;;;;;;;;;6366678;22;20059;-85
2023/08/20 05:32:57;;;;;;;7.07;5.47;;;;;;;;;;6360660;22;20014;-84
2023/08/20 05:35:24;;;;;;;7.05;4.85;;;;;;;;;;6336280;22;20010;-84
2023/08/20 05:37:50;;;;;;;8.48;5.18;;;;;;;;;;6361661;22;20022;-84
2023/08/20 05:40:16;;;;;;;9.50;5.28;;;;;;;;;;6336624;22;20019;-85
2023/08/20 05:42:42;;;;;;;9.25;5.18;;;;;;;;;;6365345;22;20010;-84
2023/08/20 05:45:08;;;;;;;8.32;5.20;;;;;;;;;;6364976;22;20006;-84
2023/08/20 05:47:34;;;;;;;7.03;4.75;;;;;;;;;;6337964;22;20015;-84
2023/08/20 05:50:00;;;;;;;7.43;4.32;;;;;;;;;;6365631;22;20026;-90
2023/08/20 05:52:26;;;;;;;7.95;5.25;;;;;;;;;;6311380;22;20443;-88
2023/08/20 05:54:52;;;;;;;8.75;4.70;;;;;;;;;;6311053;22;20011;-87
2023/08/20 05:57:18;;;;;;;7.63;4.82;;;;;;;;;;6364100;22;20014;-87
2023/08/20 05:59:44;;;;;;;7.60;4.88;;;;;;;;;;6365643;22;20044;-85
2023/08/20 06:02:10;;;;;;;9.52;4.68;;;;;;;;;;6362761;22;20015;-86
2023/08/20 06:04:36;;;;;;;6.13;4.93;;;;;;;;;;6364159;22;20049;-85
2023/08/20 06:07:02;;;;;;;8.57;4.68;;;;;;;;;;6335880;22;20070;-88
2023/08/20 06:09:29;;;;;;;8.00;4.80;;;;;;;;;;6363892;22;20329;-88
2023/08/20 06:11:55;;;;;;;5.57;4.22;;;;;;;;;;6336141;22;20017;-87
2023/08/20 06:14:21;;;;;;;7.03;4.55;;;;;;;;;;6335421;22;20014;-90
2023/08/20 06:16:47;;;;;;;6.65;4.38;;;;;;;;;;6365439;22;20037;-90
2023/08/20 06:19:13;;;;;;;7.85;4.35;;;;;;;;;;6364452;22;20018;-87
2023/08/20 06:21:39;;;;;;;7.07;4.40;;;;;;;;;;6337999;22;20321;-89
2023/08/20 06:24:05;;;;;;;5.93;4.18;;;;;;;;;;6336682;22;20463;-90
2023/08/20 06:26:31;;;;;;;5.97;4.38;;;;;;;;;;6337992;22;20014;-92
2023/08/20 06:28:57;;;;;;;5.63;3.97;;;;;;;;;;6337452;22;20304;-90
2023/08/20 06:31:23;;;;;;;6.30;3.80;;;;;;;;;;6311421;22;20018;-89
2023/08/20 06:33:49;;;;;;;7.10;4.55;;;;;;;;;;6361631;22;20439;-86
2023/08/20 06:36:15;;;;;;;6.85;4.05;;;;;;;;;;6335580;22;20093;-88
2023/08/20 06:38:41;;;;;;;7.38;3.78;;;;;;;;;;6337112;22;20022;-87
2023/08/20 06:41:07;;;;;;;7.47;3.60;;;;;;;;;;6336159;22;20050;-88
2023/08/20 06:43:33;;;;;;;5.63;3.50;;;;;;;;;;6334143;22;20019;-87
2023/08/20 06:45:59;;;;;;;6.15;3.53;;;;;;;;;;6335382;22;20022;-87
2023/08/20 06:48:26;;;;;;;7.32;3.80;;;;;;;;;;6360995;22;20018;-85
2023/08/20 06:50:52;;;;;;;4.60;3.45;;;;;;;;;;6363908;22;20018;-87
2023/08/20 06:53:19;;;;;;;8.25;4.05;;;;;;;;;;6334732;22;20042;-90
2023/08/20 06:55:45;;;;;;;6.03;3.22;;;;;;;;;;6334964;22;20022;-84
2023/08/20 06:58:11;;;;;;;6.38;4.05;;;;;;;;;;6335031;22;20053;-84
2023/08/20 07:00:37;;;;;;;10.40;4.88;;;;;;;;;;6335770;22;20018;-83
2023/08/20 07:03:03;;;;;;;6.57;3.58;;;;;;;;;;6332383;22;20018;-84
2023/08/20 07:05:29;;;;;;;6.47;3.72;;;;;;;;;;6362909;22;20029;-84
2023/08/20 07:07:55;;;;;;;5.50;4.13;;;;;;;;;;6361801;22;20363;-84
2023/08/20 07:10:21;;;;;;;7.72;4.03;;;;;;;;;;6363830;22;20025;-84
2023/08/20 07:12:47;;;;;;;5.65;4.03;;;;;;;;;;6362771;22;20010;-82
2023/08/20 07:15:13;;;;;;;6.72;4.03;;;;;;;;;;6363727;22;20407;-83
2023/08/20 07:17:40;;;;;;;6.30;3.97;;;;;;;;;;6362899;22;20041;-82
2023/08/20 07:20:06;;;;;;;6.38;4.13;;;;;;;;;;6333838;22;20014;-83
2023/08/20 07:22:32;;;;;;;6.50;3.65;;;;;;;;;;6364754;22;20414;-83
2023/08/20 07:24:58;;;;;;;7.40;3.72;;;;;;;;;;6363346;22;20049;-83
2023/08/20 07:27:24;;;;;;;8.10;3.53;;;;;;;;;;6338306;22;20010;-83
2023/08/20 07:29:50;;;;;;;6.15;3.55;;;;;;;;;;6364105;22;20331;-82
2023/08/20 07:32:16;;;;;;;6.00;4.15;;;;;;;;;;6363159;22;20415;-85
2023/08/20 07:34:42;;;;;;;5.88;3.03;;;;;;;;;;6332991;22;20098;-85
2023/08/20 07:37:08;;;;;;;4.88;2.97;;;;;;;;;;6333202;22;20035;-87
2023/08/20 07:39:34;;;;;;;5.95;2.83;;;;;;;;;;6336676;22;20071;-84
2023/08/20 07:42:01;;;;;;;5.63;2.78;;;;;;;;;;6332304;22;20090;-85
2023/08/20 07:44:28;;;;;;;5.80;2.75;;;;;;;;;;6362637;22;20014;-87
2023/08/20 07:46:54;;;;;;;5.88;2.65;;;;;;;;;;6334361;22;20014;-84
2023/08/20 07:49:20;;;;;;;6.20;2.97;;;;;;;;;;6335004;22;20019;-85
2023/08/20 07:51:46;;;;;;;4.55;2.38;;;;;;;;;;6337132;22;20018;-90
2023/08/20 07:54:12;;;;;;;7.68;2.60;;;;;;;;;;6336107;22;20087;-88
2023/08/20 07:56:38;;;;;;;7.20;2.17;;;;;;;;;;6337184;22;20445;-91
2023/08/20 07:59:04;;;;;;;5.65;2.20;;;;;;;;;;6336856;22;20033;-87
2023/08/20 08:01:30;;;;;;;8.55;2.03;;;;;;;;;;6335464;22;20019;-88
2023/08/20 08:03:56;;;;;;;3.92;2.10;;;;;;;;;;6337990;22;20018;-87
2023/08/20 08:06:23;;;;;;;6.90;2.42;;;;;;;;;;6309523;22;20015;-86
2023/08/20 08:08:49;;;;;;;6.88;2.03;;;;;;;;;;6337533;22;20019;-87
2023/08/20 08:11:15;;;;;;;9.05;2.13;;;;;;;;;;6364955;22;20010;-87
2023/08/20 08:13:41;;;;;;;5.20;2.05;;;;;;;;;;6365622;22;20032;-87
2023/08/20 08:16:07;;;;;;;8.57;2.35;;;;;;;;;;6336041;22;20071;-87
2023/08/20 08:18:34;;;;;;;3.05;1.55;;;;;;;;;;6335945;22;20053;-86
2023/08/20 08:21:00;;;;;;;4.45;2.05;;;;;;;;;;6363131;22;20067;-87
2023/08/20 08:23:26;;;;;;;4.32;1.73;;;;;;;;;;6364582;22;20343;-87
2023/08/20 08:25:52;;;;;;;6.85;2.00;;;;;;;;;;6364258;22;20327;-86
2023/08/20 08:28:18;;;;;;;5.65;2.42;;;;;;;;;;6337934;22;20014;-84
2023/08/20 08:30:44;;;;;;;5.10;1.70;;;;;;;;;;6337437;22;20321;-85
2023/08/20 08:33:10;;;;;;;3.95;1.83;;;;;;;;;;6337500;22;20018;-87
2023/08/20 08:35:36;;;;;;;6.55;1.67;;;;;;;;;;6366765;22;20085;-88
2023/08/20 08:38:03;;;;;;;6.03;1.80;;;;;;;;;;6338496;22;20095;-87
2023/08/20 08:40:30;;;;;;;6.40;2.10;;;;;;;;;;6337975;22;20026;-87
2023/08/20 08:42:56;;;;;;;4.10;1.70;;;;;;;;;;6365906;22;20084;-89
2023/08/20 08:45:22;;;;;;;4.13;1.70;;;;;;;;;;6336840;22;20025;-88
2023/08/20 08:47:49;;;;;;;4.88;1.83;;;;;;;;;;6364349;22;20011;-87
2023/08/20 08:50:15;;;;;;;3.40;1.70;;;;;;;;;;6365066;22;20046;-87
2023/08/20 08:52:42;;;;;;;6.00;1.70;;;;;;;;;;6312354;22;20014;-88
2023/08/20 08:55:08;;;;;;;5.10;1.65;;;;;;;;;;6365300;22;20011;-88
2023/08/20 08:57:37;;;;;;;5.53;1.90;;;;;;;;;;6339518;22;20059;-87
2023/08/20 09:00:04;;;;;;;5.53;1.50;;;;;;;;;;6337365;22;20010;-88
2023/08/20 09:02:30;;;;;;;2.45;1.10;;;;;;;;;;6338566;22;20019;-88
2023/08/20 09:04:57;;;;;;;4.65;1.00;;;;;;;;;;6338407;22;20019;-88
2023/08/20 09:07:23;;;;;;;3.55;1.08;;;;;;;;;;6365739;22;20086;-87
2023/08/20 09:09:49;;;;;;;3.65;1.00;;;;;;;;;;6366574;22;20332;-86
2023/08/20 09:12:18;;;;;;;6.40;1.42;;;;;;;;;;6338149;22;20390;-87
2023/08/20 09:14:48;;;;;;;2.80;1.20;;;;;;;;;;6366757;22;20332;-87
2023/08/20 09:17:15;;;;;;;2.63;1.20;;;;;;;;;;6338153;22;20083;-87
2023/08/20 09:19:42;;;;;;;3.33;1.10;;;;;;;;;;6365348;22;20364;-87
2023/08/20 09:22:08;;;;;;;5.47;1.17;;;;;;;;;;6337837;22;20018;-88
2023/08/20 09:24:39;;;;;;;3.20;1.33;;;;;;;;;;6338319;22;20021;-86
2023/08/20 09:27:05;;;;;;;4.57;1.42;;;;;;;;;;6365753;22;20440;-87
2023/08/20 09:29:44;;;;;;;2.75;0.90;;;;;;;;;;6367783;22;20010;-88
2023/08/20 09:32:14;;;;;;;4.13;0.80;;;;;;;;;;6370042;22;20016;-89
2023/08/20 09:34:40;;;;;;;2.33;0.70;;;;;;;;;;6332664;22;20021;-89
2023/08/20 09:37:13;;;;;;;2.20;0.70;;;;;;;;;;6334743;22;20410;-92
2023/08/20 09:39:39;;;;;;;4.05;0.80;;;;;;;;;;6333521;22;20007;-91
2023/08/20 09:42:06;;;;;;;2.30;0.50;;;;;;;;;;6334540;22;20018;-91
2023/08/20 09:44:36;;;;;;;3.50;1.05;;;;;;;;;;6331682;22;20335;-89
2023/08/20 09:47:04;;;;;;;3.30;0.80;;;;;;;;;;6331279;22;20022;-87
2023/08/20 09:49:33;;;;;;;2.28;0.70;;;;;;;;;;6334127;22;20002;-86
2023/08/20 09:52:00;;;;;;;2.55;0.85;;;;;;;;;;6333119;22;20019;-89
2023/08/20 09:54:31;;;;;;;2.47;0.82;;;;;;;;;;6335314;22;20023;-86
2023/08/20 09:57:02;;;;;;;2.20;0.70;;;;;;;;;;6334839;22;20014;-87
2023/08/20 09:59:28;;;;;;;3.38;1.00;;;;;;;;;;6333070;22;20684;-86
2023/08/20 10:01:55;;;;;;;3.58;0.88;;;;;;;;;;6334337;22;20018;-86
2023/08/20 10:04:22;;;;;;;3.25;1.13;;;;;;;;;;6332762;22;20084;-86
2023/08/20 10:06:48;;;;;;;3.22;0.98;;;;;;;;;;6333249;22;20022;-89
2023/08/20 10:09:14;;;;;;;2.78;1.15;;;;;;;;;;6332307;22;20018;-86
2023/08/20 10:11:41;;;;;;;3.65;0.93;;;;;;;;;;6306760;22;20019;-86
2023/08/20 10:14:07;;;;;;;1.85;0.93;;;;;;;;;;6331300;22;20088;-85
2023/08/20 10:16:36;;;;;;;1.45;0.60;;;;;;;;;;6332205;22;20022;-86
2023/08/20 10:19:03;;;;;;;4.15;1.17;;;;;;;;;;6332315;22;20014;-85
2023/08/20 10:21:29;;;;;;;3.08;1.10;;;;;;;;;;6332131;22;20404;-88
2023/08/20 10:23:55;;;;;;;3.45;0.80;;;;;;;;;;6332244;22;20037;-86
2023/08/20 10:26:24;;;;;;;3.92;0.82;;;;;;;;;;6331676;22;20023;-86
2023/08/20 10:28:51;;;;;;;4.00;1.00;;;;;;;;;;6331894;22;20274;-85
2023/08/20 10:31:17;;;;;;;2.90;0.90;;;;;;;;;;6330771;22;20014;-86
2023/08/20 10:33:56;;;;;;;2.05;0.82;;;;;;;;;;6344337;22;20075;-87
2023/08/20 10:36:26;;;;;;;1.58;0.88;;;;;;;;;;6337093;22;20011;-85
2023/08/20 10:38:55;;;;;;;1.92;0.75;;;;;;;;;;6337803;22;20014;-88
2023/08/20 10:41:30;;;;;;;2.33;1.00;;;;;;;;;;6365237;22;20049;-86
2023/08/20 10:44:00;;;;;;;1.77;0.60;;;;;;;;;;6337166;22;20024;-86
2023/08/20 10:46:29;;;;;;;1.52;0.70;;;;;;;;;;6336979;22;20351;-84
2023/08/20 10:48:59;;;;;;;2.92;0.63;;;;;;;;;;6337462;22;20340;-84
2023/08/20 10:51:26;;;;;;;1.75;0.80;;;;;;;;;;6311923;22;20014;-86
2023/08/20 10:54:05;;;;;;;2.88;0.88;;;;;;;;;;6337935;22;20022;-84
2023/08/20 10:56:41;;;;;;;3.40;0.70;;;;;;;;;;6337012;22;20022;-89
2023/08/20 10:59:09;;;;;;;2.30;0.82;;;;;;;;;;6337406;22;20014;-90
2023/08/20 11:01:35;;;;;;;4.70;0.85;;;;;;;;;;6365652;22;20331;-89
2023/08/20 11:04:04;;;;;;;2.10;0.75;;;;;;;;;;6364668;22;20006;-88
2023/08/20 11:06:34;;;;;;;1.50;0.70;;;;;;;;;;6336824;22;20014;-87
2023/08/20 11:09:00;;;;;;;4.63;1.00;;;;;;;;;;6364411;22;20378;-87
2023/08/20 11:11:26;;;;;;;2.13;0.65;;;;;;;;;;6363199;22;20308;-88
2023/08/20 11:13:52;;;;;;;3.00;1.20;;;;;;;;;;6365979;22;20055;-88
2023/08/20 11:16:19;;;;;;;2.85;0.60;;;;;;;;;;6337601;22;20018;-89
2023/08/20 11:18:46;;;;;;;4.47;0.77;;;;;;;;;;6335841;22;20042;-88
2023/08/20 11:21:13;;;;;;;2.63;0.82;;;;;;;;;;6364435;22;20010;-86
2023/08/20 11:23:41;;;;;;;1.98;0.70;;;;;;;;;;6336870;22;20020;-91
2023/08/20 11:26:08;;;;;;;2.97;0.73;;;;;;;;;;6337057;22;20117;-88
2023/08/20 11:28:34;;;;;;;2.00;0.70;;;;;;;;;;6337844;22;20018;-87
2023/08/20 11:31:02;;;;;;;3.53;0.80;;;;;;;;;;6311176;22;20018;-87
2023/08/20 11:33:29;;;;;;;1.63;0.50;;;;;;;;;;6344416;22;20026;-90
2023/08/20 11:35:55;;;;;;;2.70;0.55;;;;;;;;;;6369829;22;20059;-87
2023/08/20 11:38:24;;;;;;;3.33;0.70;;;;;;;;;;6338412;22;20090;-90
2023/08/20 11:40:50;;;;;;;2.90;0.70;;;;;;;;;;6338898;22;20014;-90
2023/08/20 11:43:16;;;;;;;3.05;0.73;;;;;;;;;;6339872;22;20013;-93
2023/08/20 11:45:46;;;;;;;2.72;0.65;;;;;;;;;;6313927;22;20022;-91
2023/08/20 11:48:12;;;;;;;;;;;;;;;;;;6368596;22;20030;-93
2023/08/20 11:50:38;;;;;;;1.92;0.60;;;;;;;;;;6340928;22;20327;-89
2023/08/20 11:53:05;;;;;;;3.70;0.75;;;;;;;;;;6370393;22;20007;-94
2023/08/20 11:55:31;;;;;;;4.10;0.57;;;;;;;;;;6340682;22;20014;-90
2023/08/20 11:57:57;;;;;;;1.70;0.68;;;;;;;;;;6341355;22;20010;-95
2023/08/20 12:00:26;;;;;;;2.45;0.40;;;;;;;;;;6315044;22;20010;-95
2023/08/20 12:02:54;;;;;;;2.30;0.73;;;;;;;;;;6318118;22;20014;-90
2023/08/20 12:05:20;;;;;;;2.90;0.85;;;;;;;;;;6340803;22;20014;-92
2023/08/20 12:07:59;;;;;;;4.90;0.60;;;;;;;;;;6339238;22;20388;-94
2023/08/20 12:10:26;;;;;;;2.90;0.80;;;;;;;;;;6368289;22;20049;-89
2023/08/20 12:12:53;;;;;;;3.88;0.60;;;;;;;;;;6340927;22;20017;-91
2023/08/20 12:15:19;;;;;;;3.47;0.60;;;;;;;;;;6368846;22;20018;-89
2023/08/20 12:18:00;;;;;;;2.88;0.55;;;;;;;;;;6368214;22;20012;-88
2023/08/20 12:20:27;;;;;;;2.10;0.40;;;;;;;;;;6340198;22;20024;-92
2023/08/20 12:22:54;;;;;;;0.95;0.52;;;;;;;;;;6338760;22;20014;-92
2023/08/20 12:25:20;;;;;;;2.03;0.75;;;;;;;;;;6337550;22;20024;-88
2023/08/20 12:27:46;;;;;;;2.47;0.45;;;;;;;;;;6368098;22;20014;-89
2023/08/20 12:30:12;;;;;;;0.73;0.50;;;;;;;;;;6338443;22;20014;-89
2023/08/20 12:32:38;;;;;;;1.23;0.40;;;;;;;;;;6367178;22;20019;-90
2023/08/20 12:35:05;;;;;;;3.10;0.40;;;;;;;;;;6366636;22;20021;-93
2023/08/20 12:37:31;;;;;;;1.27;0.60;;;;;;;;;;6367468;22;20067;-94
2023/08/20 12:39:57;;;;;;;2.85;0.47;;;;;;;;;;6312124;22;20010;-93
2023/08/20 12:42:23;;;;;;;1.88;0.43;;;;;;;;;;6339428;22;20062;-88
2023/08/20 12:44:49;;;;;;;1.30;0.30;;;;;;;;;;6339320;22;20085;-94
2023/08/20 12:47:15;;;;;;;1.70;0.50;;;;;;;;;;6367209;22;20017;-94
2023/08/20 12:49:41;;;;;;;2.13;0.50;;;;;;;;;;6314547;22;20014;-95
2023/08/20 12:52:08;;;;;;;0.90;0.38;;;;;;;;;;6313826;22;20440;-96
2023/08/20 12:54:34;;;;;;;0.73;0.20;;;;;;;;;;6342144;22;20013;-94
2023/08/20 12:57:00;;;;;;;0.35;0.20;;;;;;;;;;6338446;22;20044;-93
2023/08/20 12:59:26;;;;;;;1.00;0.20;;;;;;;;;;6338466;22;20010;-90
2023/08/20 13:01:52;;;;;;;0.90;0.45;;;;;;;;;;6312380;22;20097;-94
2023/08/20 13:04:18;;;;;;;0.35;0.20;;;;;;;;;;6342242;22;20014;-95
2023/08/20 13:06:44;;;;;;;0.63;0.22;;;;;;;;;;6318924;22;20010;-96
2023/08/20 13:09:10;;;;;;;1.52;0.38;;;;;;;;;;6344970;22;20063;-95
2023/08/20 13:11:38;;;;;;;0.52;0.30;;;;;;;;;;6315745;22;20331;-96
2023/08/20 13:14:04;;;;;;;2.03;0.38;;;;;;;;;;6315120;22;20049;-95
2023/08/20 13:16:30;;;;;;;1.60;0.43;;;;;;;;;;6344048;22;20135;-92
2023/08/20 13:18:57;;;;;;;3.42;0.70;;;;;;;;;;6343027;22;20014;-94
2023/08/20 13:21:23;;;;;;;0.98;0.50;;;;;;;;;;6315428;22;20151;-92
2023/08/20 13:23:49;;;;;;;1.75;0.50;;;;;;;;;;6315647;22;20411;-93
2023/08/20 13:26:15;;;;;;;1.33;0.30;;;;;;;;;;6312570;22;20067;-93
2023/08/20 13:28:41;;;;;;;1.23;0.22;;;;;;;;;;6312726;22;20023;-89
2023/08/20 13:31:07;;;;;;;1.08;0.47;;;;;;;;;;6338953;22;20071;-89
2023/08/20 13:33:33;;;;;;;0.70;0.35;;;;;;;;;;6340549;22;20036;-93
2023/08/20 13:35:59;;;;;;;1.65;0.40;;;;;;;;;;6345356;22;20025;-91
2023/08/20 13:38:25;;;;;;;1.35;0.50;;;;;;;;;;6347825;22;20042;-94
2023/08/20 13:40:51;;;;;;;2.35;0.60;;;;;;;;;;6341213;22;20014;-92
2023/08/20 13:43:17;;;;;;;1.55;0.70;;;;;;;;;;6367961;22;20135;-94
2023/08/20 13:45:43;;;;;;;1.63;0.50;;;;;;;;;;6313982;22;20041;-95
2023/08/20 13:48:09;;;;;;;1.05;0.55;;;;;;;;;;6313423;22;20083;-94
2023/08/20 13:50:35;;;;;;;2.58;0.82;;;;;;;;;;6367339;22;20423;-94
2023/08/20 13:53:01;;;;;;;1.75;0.63;;;;;;;;;;6340149;22;20063;-96
2023/08/20 13:55:27;;;;;;;2.72;1.10;;;;;;;;;;6342444;22;20010;-95
2023/08/20 13:57:53;;;;;;;1.27;0.80;;;;;;;;;;6314349;22;20010;-95
2023/08/20 14:00:19;;;;;;;2.08;1.08;;;;;;;;;;6342227;22;20339;-95
2023/08/20 14:02:45;;;;;;;1.83;1.38;;;;;;;;;;6340538;22;20015;-94
2023/08/20 14:05:11;;;;;;;2.17;1.25;;;;;;;;;;6365145;22;20021;-93
2023/08/20 14:07:38;;;;;;;2.83;1.25;;;;;;;;;;6342364;22;20427;-96
2023/08/20 14:10:04;;;;;;;2.17;1.20;;;;;;;;;;6347095;22;20022;-94
2023/08/20 14:12:30;;;;;;;4.05;1.25;;;;;;;;;;6348737;22;20013;-96
2023/08/20 14:14:56;;;;;;;2.10;1.10;;;;;;;;;;6319523;22;20087;-96
2023/08/20 14:17:22;;;;;;;1.45;1.08;;;;;;;;;;6319941;22;20011;-96
2023/08/20 14:19:49;;;;;;;1.67;1.10;;;;;;;;;;6343962;22;20078;-95
2023/08/20 14:22:15;;;;;;;2.60;1.00;;;;;;;;;;6320491;22;20501;-96
2023/08/20 14:24:41;;;;;;;2.28;1.25;;;;;;;;;;6344464;22;20085;-93
2023/08/20 14:27:09;;;;;;;2.85;1.25;;;;;;;;;;6347619;22;20013;-96
2023/08/20 14:29:36;;;;;;;1.25;0.95;;;;;;;;;;6320949;22;20037;-95
2023/08/20 14:32:02;;;;;;;2.15;1.08;;;;;;;;;;6320024;22;20011;-95
2023/08/20 14:34:28;;;;;;;2.13;1.10;;;;;;;;;;6347132;22;20106;-94
2023/08/20 14:36:54;;;;;;;3.28;0.90;;;;;;;;;;6322884;22;20081;-96
2023/08/20 14:39:20;;;;;;;4.28;1.00;;;;;;;;;;6320235;22;20049;-93